Terminal Aerodrome Forecast
Issued by NWS Sioux Falls, SD

Home | Current Version | Previous Version | Graphics & Text | Print | Product List | Glossary Off
Versions: 1 2 3 4 5 6 7 8 9 10 11 12

000
FTUS43 KFSD 260520
TAFHON
TAF
KHON 260520Z 2606/2706 36005KT P6SM SCT035 OVC100
     FM261400 04009KT P6SM SCT025 BKN150
     FM261800 35009KT P6SM BKN050=

USA.gov is the U.S. government's official web portal to all federal, state and local government web resources and services.